Time;durP1;ratioP1;P1;durP2;ratioP2;P2;SDS_P1;SDS_P2;PMS_P1;PMS_P2;Temp;Humidity;BMP_temperature;BMP_pressure;BME280_temperature;BME280_humidity;BME280_pressure;Samples;Min_cycle;Max_cycle;Signal;HPM_P1;HPM_P2
2022/05/14 00:00:47;;;;;;;;;;;;;;;21.96;77.77;98328.56;5022087;28;19925;-61
2022/05/14 00:03:13;;;;;;;;;;;;;;;21.79;78.92;98336.75;5022060;28;19992;-61
2022/05/14 00:05:41;;;;;;;;;;;;;;;21.52;80.85;98329.00;5018583;28;19932;-61
2022/05/14 00:08:08;;;;;;;;;;;;;;;21.39;81.97;98340.84;5018746;28;19929;-61
2022/05/14 00:13:03;;;;;;;;;;;;;;;21.34;81.28;98336.41;5021357;28;19926;-61
2022/05/14 00:13:20;;;;;;;;;;;;;;;21.37;81.75;98337.69;5020413;28;19930;-62
2022/05/14 00:15:46;;;;;;;;;;;;;;;20.89;82.83;98335.94;5018500;28;19926;-61
2022/05/14 00:18:12;;;;;;;;;;;;;;;20.71;84.98;98334.31;5018230;28;19932;-61
2022/05/14 00:20:41;;;;;;;;;;;;;;;21.11;84.00;98332.28;5021255;28;19925;-60
2022/05/14 00:23:10;;;;;;;;;;;;;;;21.39;82.10;98341.66;5021320;28;19972;-61
2022/05/14 00:25:37;;;;;;;;;;;;;;;21.49;80.59;98325.03;5018286;28;19932;-60
2022/05/14 00:28:04;;;;;;;;;;;;;;;21.59;80.03;98328.50;5017966;28;20004;-60
2022/05/14 00:30:31;;;;;;;;;;;;;;;21.62;79.55;98325.16;5019950;28;19957;-60
2022/05/14 00:32:58;;;;;;;;;;;;;;;21.62;79.09;98325.16;5021126;28;19925;-60
2022/05/14 00:35:24;;;;;;;;;;;;;;;21.65;79.04;98321.78;5019856;28;19935;-60
2022/05/14 00:37:52;;;;;;;;;;;;;;;21.62;79.51;98330.59;5018152;28;19948;-60
2022/05/14 00:40:21;;;;;;;;;;;;;;;21.57;79.26;98322.63;5018536;28;20023;-60
2022/05/14 00:42:47;;;;;;;;;;;;;;;21.59;79.11;98323.09;5021100;28;19985;-61
2022/05/14 00:45:16;;;;;;;;;;;;;;;21.42;79.99;98324.72;5021491;28;19981;-60
2022/05/14 00:47:45;;;;;;;;;;;;;;;21.43;80.47;98320.09;5010306;28;19921;-61
2022/05/14 00:50:17;;;;;;;;;;;;;;;21.43;79.84;98320.09;5017690;28;19933;-60
2022/05/14 00:52:44;;;;;;;;;;;;;;;21.48;79.54;98322.63;5010136;28;19926;-61
2022/05/14 00:55:12;;;;;;;;;;;;;;;21.51;79.07;98324.69;5017868;28;19933;-60
2022/05/14 00:57:42;;;;;;;;;;;;;;;21.44;79.43;98314.34;5020807;28;19922;-61
2022/05/14 01:00:10;;;;;;;;;;;;;;;21.45;79.33;98326.78;5021113;28;19966;-60
2022/05/14 01:02:36;;;;;;;;;;;;;;;21.43;79.31;98323.59;5017567;28;19961;-61
2022/05/14 01:05:03;;;;;;;;;;;;;;;21.40;79.44;98318.81;5017678;28;19985;-60
2022/05/14 01:07:29;;;;;;;;;;;;;;;21.36;79.58;98317.84;5019405;28;20009;-60
2022/05/14 01:09:58;;;;;;;;;;;;;;;21.32;79.59;98316.91;5020917;28;19964;-59
2022/05/14 01:12:27;;;;;;;;;;;;;;;21.31;80.04;98328.91;5016886;28;19930;-60
2022/05/14 01:14:53;;;;;;;;;;;;;;;21.23;80.21;98324.25;5021031;28;19980;-61
2022/05/14 01:17:20;;;;;;;;;;;;;;;21.26;80.35;98320.91;5019929;28;20344;-60
2022/05/14 01:19:47;;;;;;;;;;;;;;;21.29;80.26;98327.63;4999955;28;19926;-62
2022/05/14 01:22:23;;;;;;;;;;;;;;;21.21;80.47;98315.66;5017469;28;19965;-60
2022/05/14 01:27:39;;;;;;;;;;;;;;;21.28;80.12;98321.41;5019854;28;19947;-60
2022/05/14 01:30:06;;;;;;;;;;;;;;;20.67;83.36;98314.38;5020243;28;19997;-60
2022/05/14 01:32:33;;;;;;;;;;;;;;;20.39;85.31;98327.41;5017787;28;19926;-61
2022/05/14 01:34:59;;;;;;;;;;;;;;;20.74;84.42;98322.03;5016983;28;19926;-60
2022/05/14 01:37:25;;;;;;;;;;;;;;;20.92;83.01;98319.00;5018369;28;19926;-60
2022/05/14 01:39:52;;;;;;;;;;;;;;;21.01;82.29;98321.72;5020002;28;19993;-60
2022/05/14 01:42:18;;;;;;;;;;;;;;;21.02;81.87;98323.31;4998596;28;19985;-61
2022/05/14 01:44:46;;;;;;;;;;;;;;;21.04;81.69;98331.16;5020120;28;19989;-60
2022/05/14 01:47:12;;;;;;;;;;;;;;;21.03;81.85;98327.63;5020369;28;19940;-61
2022/05/14 01:49:39;;;;;;;;;;;;;;;20.93;82.08;98330.66;5016739;28;19926;-59
2022/05/14 01:52:05;;;;;;;;;;;;;;;20.87;82.19;98329.22;5016329;28;19932;-61
2022/05/14 01:54:31;;;;;;;;;;;;;;;20.96;81.79;98330.81;5018051;28;19936;-60
2022/05/14 01:56:58;;;;;;;;;;;;;;;20.96;81.34;98335.44;5019869;28;19929;-61
2022/05/14 01:59:26;;;;;;;;;;;;;;;20.92;81.23;98326.38;5018904;28;19929;-60
2022/05/14 02:01:53;;;;;;;;;;;;;;;20.91;80.98;98327.47;5016274;28;19926;-60
2022/05/14 02:04:20;;;;;;;;;;;;;;;20.96;80.69;98324.59;5017202;28;19993;-60
2022/05/14 02:06:46;;;;;;;;;;;;;;;20.94;80.30;98326.84;5019741;28;19925;-61
2022/05/14 02:09:14;;;;;;;;;;;;;;;20.90;80.42;98329.38;5020052;28;19925;-60
2022/05/14 02:11:41;;;;;;;;;;;;;;;20.90;80.07;98323.16;5016183;28;20402;-61
2022/05/14 02:14:07;;;;;;;;;;;;;;;20.85;80.28;98313.28;5016514;28;19937;-60
2022/05/14 02:16:34;;;;;;;;;;;;;;;20.86;80.04;98314.03;5018938;28;19926;-61
2022/05/14 02:19:02;;;;;;;;;;;;;;;20.87;80.15;98321.88;5019334;28;19929;-61
2022/05/14 02:21:28;;;;;;;;;;;;;;;20.81;79.81;98317.72;5017730;28;19981;-61
2022/05/14 02:23:55;;;;;;;;;;;;;;;20.07;83.63;98324.28;5015958;28;19922;-60
2022/05/14 02:26:22;;;;;;;;;;;;;;;19.49;89.13;98324.50;5016930;28;19932;-61
2022/05/14 02:28:48;;;;;;;;;;;;;;;19.32;90.10;98315.13;5019259;28;19957;-60
2022/05/14 02:31:14;;;;;;;;;;;;;;;19.18;91.60;98300.88;5019346;28;20652;-60
2022/05/14 02:33:41;;;;;;;;;;;;;;;19.00;92.63;98296.44;5019593;28;19926;-61
2022/05/14 02:36:10;;;;;;;;;;;;;;;18.74;94.23;98298.16;5019629;28;20610;-60
2022/05/14 02:38:37;;;;;;;;;;;;;;;19.07;94.91;98299.53;5016558;28;19934;-60
2022/05/14 02:41:03;;;;;;;;;;;;;;;19.32;92.48;98298.09;5015880;28;20020;-60
2022/05/14 02:43:29;;;;;;;;;;;;;;;19.77;88.83;98305.06;5019986;28;19961;-60
2022/05/14 02:45:56;;;;;;;;;;;;;;;20.14;85.97;98305.66;5015782;28;19929;-61
2022/05/14 02:48:22;;;;;;;;;;;;;;;20.28;84.37;98306.34;5016657;28;19932;-61
2022/05/14 02:50:48;;;;;;;;;;;;;;;20.40;83.56;98307.31;5019043;28;19994;-60
2022/05/14 02:53:16;;;;;;;;;;;;;;;20.45;82.95;98303.66;5019384;28;19936;-61
2022/05/14 02:55:42;;;;;;;;;;;;;;;20.48;82.53;98304.94;5008020;28;19957;-61
2022/05/14 02:58:08;;;;;;;;;;;;;;;20.51;82.37;98307.03;5016131;28;19932;-61
2022/05/14 03:00:35;;;;;;;;;;;;;;;20.49;82.35;98301.13;5018537;28;19994;-60
2022/05/14 03:03:01;;;;;;;;;;;;;;;20.51;82.22;98307.81;5019050;28;19993;-61
2022/05/14 03:05:28;;;;;;;;;;;;;;;20.41;82.08;98302.69;5017018;28;19937;-61
2022/05/14 03:07:55;;;;;;;;;;;;;;;20.38;82.66;98303.31;5016042;28;19922;-60
2022/05/14 03:10:22;;;;;;;;;;;;;;;20.21;83.88;98303.28;5016577;28;19925;-60
2022/05/14 03:12:48;;;;;;;;;;;;;;;20.23;83.74;98301.03;5018740;28;19932;-61
2022/05/14 03:15:15;;;;;;;;;;;;;;;20.29;83.08;98303.31;5019031;28;20001;-60
2022/05/14 03:17:41;;;;;;;;;;;;;;;20.35;82.57;98304.75;4990526;28;19989;-61
2022/05/14 03:20:08;;;;;;;;;;;;;;;20.34;82.71;98308.59;5015720;28;19936;-60
2022/05/14 03:22:35;;;;;;;;;;;;;;;20.23;83.43;98303.75;5018534;28;19925;-61
2022/05/14 03:25:02;;;;;;;;;;;;;;;20.31;82.76;98297.56;5019086;28;19925;-61
2022/05/14 03:27:29;;;;;;;;;;;;;;;20.34;82.55;98303.16;5016791;28;20299;-61
2022/05/14 03:29:56;;;;;;;;;;;;;;;20.29;82.58;98306.03;5015345;28;19926;-61
2022/05/14 03:32:23;;;;;;;;;;;;;;;20.22;83.13;98300.22;5016099;28;19926;-62
2022/05/14 03:34:50;;;;;;;;;;;;;;;20.23;83.13;98311.88;5018383;28;19925;-63
2022/05/14 03:37:16;;;;;;;;;;;;;;;20.26;82.80;98309.38;5018492;28;20521;-61
2022/05/14 03:39:43;;;;;;;;;;;;;;;20.28;82.58;98311.75;5015513;28;19994;-61
2022/05/14 03:42:09;;;;;;;;;;;;;;;19.98;83.69;98315.31;5015758;28;19997;-63
2022/05/14 03:44:37;;;;;;;;;;;;;;;19.29;87.18;98314.97;5017858;28;20957;-61
2022/05/14 03:47:03;;;;;;;;;;;;;;;19.57;87.43;98315.63;5018580;28;19932;-61
2022/05/14 03:49:29;;;;;;;;;;;;;;;19.79;85.92;98318.28;5016940;28;19997;-62
2022/05/14 03:51:56;;;;;;;;;;;;;;;19.55;87.23;98318.66;4997998;28;19936;-61
2022/05/14 03:54:22;;;;;;;;;;;;;;;18.90;90.03;98323.78;5015751;28;19957;-60
2022/05/14 03:56:48;;;;;;;;;;;;;;;19.19;90.68;98320.63;5018508;28;19925;-60
2022/05/14 03:59:15;;;;;;;;;;;;;;;19.53;87.73;98320.84;5018833;28;19972;-61
2022/05/14 04:01:43;;;;;;;;;;;;;;;19.64;87.03;98337.66;5007263;28;19989;-60
2022/05/14 04:04:09;;;;;;;;;;;;;;;19.70;86.24;98325.56;5015006;28;19956;-61
2022/05/14 04:06:35;;;;;;;;;;;;;;;19.49;86.76;98329.94;5017642;28;19962;-60
2022/05/14 04:09:02;;;;;;;;;;;;;;;19.53;86.75;98336.34;5017836;28;19948;-61
2022/05/14 04:11:29;;;;;;;;;;;;;;;19.69;86.13;98340.22;5016351;28;20020;-60
2022/05/14 04:13:57;;;;;;;;;;;;;;;19.85;85.01;98336.00;5014676;28;20313;-61
2022/05/14 04:16:23;;;;;;;;;;;;;;;19.95;84.09;98333.03;5016672;28;19926;-59
2022/05/14 04:18:51;;;;;;;;;;;;;;;19.97;83.63;98336.19;5021373;28;19926;-59
2022/05/14 04:21:17;;;;;;;;;;;;;;;19.54;85.57;98335.22;5021365;28;19989;-60
2022/05/14 04:23:43;;;;;;;;;;;;;;;19.16;87.79;98332.88;5017795;28;20020;-60
2022/05/14 04:26:10;;;;;;;;;;;;;;;19.18;89.34;98330.66;5017874;28;19921;-61
2022/05/14 04:28:37;;;;;;;;;;;;;;;19.13;89.33;98332.69;5021059;28;19992;-60
2022/05/14 04:31:03;;;;;;;;;;;;;;;18.88;90.20;98334.91;5021318;28;20411;-61
2022/05/14 04:33:30;;;;;;;;;;;;;;;18.93;90.84;98339.41;5018980;28;19984;-60
2022/05/14 04:35:58;;;;;;;;;;;;;;;18.87;91.45;98337.91;5017912;28;19933;-60
2022/05/14 04:38:24;;;;;;;;;;;;;;;19.18;89.34;98341.50;5019016;28;19936;-61
2022/05/14 04:40:51;;;;;;;;;;;;;;;19.36;87.55;98345.94;5020890;28;20448;-61
2022/05/14 04:43:18;;;;;;;;;;;;;;;19.64;86.16;98343.88;5020722;28;20021;-60
2022/05/14 04:45:44;;;;;;;;;;;;;;;19.64;85.50;98341.16;5017843;28;19926;-60
2022/05/14 04:48:11;;;;;;;;;;;;;;;19.37;86.66;98344.78;5017909;28;19954;-62
2022/05/14 04:50:38;;;;;;;;;;;;;;;19.37;87.05;98344.78;5020349;28;19940;-60
2022/05/14 04:53:06;;;;;;;;;;;;;;;19.56;86.14;98354.69;5020940;28;19948;-61
2022/05/14 04:55:33;;;;;;;;;;;;;;;19.33;86.36;98348.44;5018523;28;19961;-60
2022/05/14 04:57:59;;;;;;;;;;;;;;;19.28;87.56;98354.78;5017429;28;19933;-60
2022/05/14 05:00:26;;;;;;;;;;;;;;;19.01;88.55;98352.19;5018373;28;20006;-61
2022/05/14 05:05:36;;;;;;;;;;;;;;;18.76;89.70;98366.31;5017661;28;20005;-60
2022/05/14 05:08:03;;;;;;;;;;;;;;;18.88;89.65;98358.44;5017053;28;19948;-60
2022/05/14 05:10:31;;;;;;;;;;;;;;;18.54;91.40;98368.94;5018904;28;19921;-60
2022/05/14 05:12:57;;;;;;;;;;;;;;;18.81;91.19;98368.91;5020578;28;19993;-60
2022/05/14 05:15:24;;;;;;;;;;;;;;;18.99;90.22;98364.44;5019729;28;19926;-61
2022/05/14 05:17:50;;;;;;;;;;;;;;;18.70;90.77;98360.22;5016658;28;19933;-60
2022/05/14 05:20:17;;;;;;;;;;;;;;;18.93;88.87;98360.25;5017186;28;19930;-60
2022/05/14 05:22:43;;;;;;;;;;;;;;;19.00;89.29;98361.41;5020428;28;19925;-61
2022/05/14 05:25:12;;;;;;;;;;;;;;;18.83;89.56;98372.91;5020297;28;19936;-61
2022/05/14 05:27:39;;;;;;;;;;;;;;;18.90;90.27;98372.50;5017297;28;19961;-60
2022/05/14 05:30:06;;;;;;;;;;;;;;;18.82;90.60;98367.78;5016849;28;19990;-60
2022/05/14 05:32:32;;;;;;;;;;;;;;;18.40;92.50;98368.16;5019091;28;19932;-61
2022/05/14 05:34:59;;;;;;;;;;;;;;;18.80;91.30;98368.09;5020450;28;19926;-61
2022/05/14 05:37:25;;;;;;;;;;;;;;;18.61;91.33;98374.75;5019153;28;19926;-60
2022/05/14 05:39:51;;;;;;;;;;;;;;;18.85;91.28;98367.19;5016586;28;19933;-61
2022/05/14 05:42:18;;;;;;;;;;;;;;;19.34;88.15;98382.56;5017049;28;19926;-60
2022/05/14 05:44:45;;;;;;;;;;;;;;;19.78;85.22;98374.38;5020217;28;19925;-61
2022/05/14 05:47:12;;;;;;;;;;;;;;;19.89;84.20;98378.44;5020144;28;19964;-60
2022/05/14 05:49:39;;;;;;;;;;;;;;;20.15;83.02;98381.25;5016580;28;19930;-60
2022/05/14 05:52:05;;;;;;;;;;;;;;;20.29;81.51;98376.56;5016454;28;20005;-60
2022/05/14 05:57:16;;;;;;;;;;;;;;;20.07;81.69;98378.50;5019585;28;19926;-60
2022/05/14 05:59:42;;;;;;;;;;;;;;;19.81;82.56;98375.66;4988069;28;19976;-60
2022/05/14 06:02:10;;;;;;;;;;;;;;;20.05;83.28;98368.00;5011854;28;20001;-60
2022/05/14 06:04:36;;;;;;;;;;;;;;;20.53;81.00;98380.75;5018895;28;19929;-60
2022/05/14 06:07:03;;;;;;;;;;;;;;;20.84;78.92;98378.72;5019634;28;19933;-61
2022/05/14 06:09:32;;;;;;;;;;;;;;;21.09;77.13;98374.47;5017604;28;19930;-61
2022/05/14 06:11:59;;;;;;;;;;;;;;;21.29;75.72;98371.88;5015881;28;20457;-60
2022/05/14 06:14:25;;;;;;;;;;;;;;;21.30;75.79;98378.13;5017155;28;19926;-60
2022/05/14 06:16:52;;;;;;;;;;;;;;;21.49;74.83;98376.66;5019323;28;19947;-60
2022/05/14 06:19:20;;;;;;;;;;;;;;;21.58;74.01;98376.63;5018936;28;19933;-60
2022/05/14 06:21:46;;;;;;;;;;;;;;;21.51;74.00;98379.03;5016042;28;19965;-61
2022/05/14 06:24:12;;;;;;;;;;;;;;;21.44;75.73;98382.28;5015814;28;19926;-61
2022/05/14 06:26:38;;;;;;;;;;;;;;;21.61;75.82;98377.91;5018995;28;19929;-60
2022/05/14 06:29:05;;;;;;;;;;;;;;;21.41;73.93;98377.47;5019172;28;19932;-61
2022/05/14 06:31:31;;;;;;;;;;;;;;;21.40;77.14;98378.59;5017179;28;19983;-60
2022/05/14 06:33:59;;;;;;;;;;;;;;;21.82;75.29;98379.59;5015709;28;19930;-61
2022/05/14 06:36:27;;;;;;;;;;;;;;;21.83;73.18;98383.13;5017014;28;19926;-60
2022/05/14 06:38:53;;;;;;;;;;;;;;;21.98;73.81;98377.19;5018437;28;19925;-61
2022/05/14 06:41:20;;;;;;;;;;;;;;;22.05;73.53;98382.94;5008961;28;20001;-60
2022/05/14 06:43:46;;;;;;;;;;;;;;;22.09;72.57;98383.06;5013418;28;20023;-61
2022/05/14 06:46:12;;;;;;;;;;;;;;;22.16;73.48;98381.44;5015183;28;20020;-61
2022/05/14 06:48:39;;;;;;;;;;;;;;;22.11;72.36;98391.69;5018770;28;19936;-60
2022/05/14 06:51:07;;;;;;;;;;;;;;;22.18;73.11;98381.91;5014626;28;19938;-59
2022/05/14 06:53:35;;;;;;;;;;;;;;;22.36;72.74;98390.78;5002693;28;20513;-61
2022/05/14 06:56:02;;;;;;;;;;;;;;;22.06;71.26;98392.69;4986996;28;19998;-60
2022/05/14 06:58:31;;;;;;;;;;;;;;;21.23;76.39;98394.91;5003296;28;19926;-60
2022/05/14 07:00:57;;;;;;;;;;;;;;;20.99;81.07;98395.34;5004157;28;19930;-60
2022/05/14 07:08:53;;;;;;;;;;;;;;;20.86;84.41;98398.19;5008527;28;19960;-60
2022/05/14 07:11:24;;;;;;;;;;;;;;;21.26;82.88;98385.31;4997634;28;19936;-61
2022/05/14 07:13:51;;;;;;;;;;;;;;;22.06;77.88;98374.44;5013367;28;19982;-60
2022/05/14 07:16:17;;;;;;;;;;;;;;;22.38;75.86;98381.16;5014262;28;20048;-60
2022/05/14 07:18:43;;;;;;;;;;;;;;;22.42;74.73;98381.31;5011670;28;19989;-61
2022/05/14 07:21:10;;;;;;;;;;;;;;;22.56;73.49;98377.22;4995047;28;19981;-61
2022/05/14 07:23:36;;;;;;;;;;;;;;;22.87;71.86;98387.00;5009137;28;20016;-61
2022/05/14 07:26:05;;;;;;;;;;;;;;;23.06;69.99;98384.59;5008654;28;19981;-60
2022/05/14 07:28:33;;;;;;;;;;;;;;;23.18;69.16;98368.31;5004801;28;19933;-60
2022/05/14 07:31:00;;;;;;;;;;;;;;;23.20;67.84;98378.88;5004017;28;20001;-60
2022/05/14 07:33:27;;;;;;;;;;;;;;;23.31;66.60;98371.88;5005675;28;19932;-62
2022/05/14 07:35:53;;;;;;;;;;;;;;;23.34;64.18;98369.28;5005370;28;20024;-60
2022/05/14 07:38:20;;;;;;;;;;;;;;;23.35;62.76;98370.88;5005336;28;19933;-61
2022/05/14 07:40:46;;;;;;;;;;;;;;;22.98;58.50;98374.56;5011589;28;21253;-60
2022/05/14 07:43:18;;;;;;;;;;;;;;;22.75;61.85;98376.81;5012934;28;19945;-60
2022/05/14 07:45:49;;;;;;;;;;;;;;;23.10;61.42;98369.19;4999963;28;19957;-60
2022/05/14 07:48:17;;;;;;;;;;;;;;;22.80;60.04;98375.84;5006446;28;19926;-61
2022/05/14 07:50:44;;;;;;;;;;;;;;;21.94;59.95;98370.81;5002408;28;19989;-60
2022/05/14 07:53:10;;;;;;;;;;;;;;;21.52;60.72;98378.72;5006724;28;19930;-60
2022/05/14 07:55:37;;;;;;;;;;;;;;;21.83;64.88;98372.25;5016890;28;19925;-60
2022/05/14 07:58:04;;;;;;;;;;;;;;;22.39;63.75;98361.00;5018114;28;19926;-60
2022/05/14 08:00:32;;;;;;;;;;;;;;;21.63;59.67;98362.09;5020103;28;19957;-60
2022/05/14 08:02:58;;;;;;;;;;;;;;;21.70;61.87;98370.53;5021217;28;19932;-60
2022/05/14 08:05:25;;;;;;;;;;;;;;;21.42;62.25;98368.19;5020196;28;19921;-61
2022/05/14 08:07:51;;;;;;;;;;;;;;;21.17;65.66;98369.00;5018244;28;19993;-61
2022/05/14 08:10:18;;;;;;;;;;;;;;;21.98;67.24;98364.41;5018467;28;19932;-60
2022/05/14 08:12:46;;;;;;;;;;;;;;;22.52;65.68;98365.41;5021296;28;19936;-61
2022/05/14 08:15:14;;;;;;;;;;;;;;;23.17;62.44;98368.66;5021305;28;19926;-61
2022/05/14 08:17:42;;;;;;;;;;;;;;;22.92;61.11;98368.53;5017952;28;19969;-60
2022/05/14 08:20:09;;;;;;;;;;;;;;;23.32;60.93;98362.56;5018032;28;19994;-60
2022/05/14 08:25:20;;;;;;;;;;;;;;;23.68;58.42;98360.00;5020763;28;20608;-60
2022/05/14 08:27:47;;;;;;;;;;;;;;;23.77;56.94;98362.66;5017722;28;19981;-60
2022/05/14 08:30:13;;;;;;;;;;;;;;;23.62;58.99;98358.59;5017835;28;19926;-60
2022/05/14 08:32:39;;;;;;;;;;;;;;;24.08;57.40;98365.63;5021070;28;19960;-60
2022/05/14 08:35:08;;;;;;;;;;;;;;;24.13;55.75;98351.78;5021009;28;20013;-61
2022/05/14 08:37:34;;;;;;;;;;;;;;;24.24;56.10;98358.38;5018611;28;19936;-61
2022/05/14 08:40:05;;;;;;;;;;;;;;;24.41;55.07;98351.91;5017452;28;19997;-61
2022/05/14 08:42:33;;;;;;;;;;;;;;;24.52;53.99;98353.81;5019546;28;20060;-60
2022/05/14 08:44:59;;;;;;;;;;;;;;;24.60;53.46;98354.84;5020736;28;19970;-61
2022/05/14 08:47:28;;;;;;;;;;;;;;;24.61;52.94;98357.22;5019767;28;19925;-60
2022/05/14 08:49:55;;;;;;;;;;;;;;;24.60;53.69;98355.63;5017606;28;19926;-60
2022/05/14 08:52:25;;;;;;;;;;;;;;;24.77;53.17;98356.50;5018305;28;19926;-60
2022/05/14 08:54:53;;;;;;;;;;;;;;;24.65;53.13;98352.66;5020546;28;20032;-60
2022/05/14 08:57:24;;;;;;;;;;;;;;;24.07;49.56;98337.56;5020281;28;19997;-61
2022/05/14 08:59:53;;;;;;;;;;;;;;;24.14;54.38;98347.91;5017429;28;19933;-60
2022/05/14 09:02:21;;;;;;;;;;;;;;;24.03;52.92;98353.00;5000032;28;19926;-62
2022/05/14 09:04:49;;;;;;;;;;;;;;;24.21;49.86;98348.16;5020756;28;19933;-61
2022/05/14 09:07:16;;;;;;;;;;;;;;;23.89;54.07;98346.28;5020594;28;19966;-62
2022/05/14 09:09:57;;;;;;;;;;;;;;;24.23;54.16;98351.34;5009515;28;20000;-60
2022/05/14 09:12:25;;;;;;;;;;;;;;;23.89;50.38;98349.03;5018376;28;19985;-62
2022/05/14 09:14:56;;;;;;;;;;;;;;;23.31;50.68;98342.69;5020425;28;20079;-61
2022/05/14 09:17:23;;;;;;;;;;;;;;;23.04;51.28;98340.53;5019487;28;19997;-61
2022/05/14 09:19:51;;;;;;;;;;;;;;;23.29;52.83;98334.06;5016760;28;19926;-60
2022/05/14 09:22:24;;;;;;;;;;;;;;;24.35;53.75;98336.91;5017365;28;19936;-61
2022/05/14 09:24:52;;;;;;;;;;;;;;;24.71;52.41;98337.63;5020152;28;19929;-61
2022/05/14 09:27:24;;;;;;;;;;;;;;;25.00;50.92;98331.09;5019867;28;19996;-60
2022/05/14 09:29:53;;;;;;;;;;;;;;;25.09;50.56;98331.75;5016938;28;19929;-61
2022/05/14 09:32:40;;;;;;;;;;;;;;;24.69;44.55;98325.47;5017122;28;19925;-61
2022/05/14 09:35:09;;;;;;;;;;;;;;;24.79;50.48;98330.44;5002746;28;19948;-62
2022/05/14 09:37:36;;;;;;;;;;;;;;;24.99;50.33;98334.97;5017481;28;19925;-61
2022/05/14 09:40:04;;;;;;;;;;;;;;;25.15;49.23;98326.81;5016608;28;19988;-60
2022/05/14 09:42:36;;;;;;;;;;;;;;;25.27;49.42;98321.31;5018450;28;19926;-61
2022/05/14 09:45:03;;;;;;;;;;;;;;;24.91;47.79;98321.47;5020124;28;19989;-60
2022/05/14 09:47:30;;;;;;;;;;;;;;;25.08;48.62;98310.22;5018499;28;19925;-61
2022/05/14 09:49:58;;;;;;;;;;;;;;;25.39;48.15;98315.78;5016404;28;20017;-61
2022/05/14 09:52:25;;;;;;;;;;;;;;;25.51;47.74;98313.00;5017670;28;19926;-62
2022/05/14 09:54:52;;;;;;;;;;;;;;;25.55;46.29;98302.94;5020059;28;19975;-60
2022/05/14 09:57:39;;;;;;;;;;;;;;;24.93;47.07;98309.03;5020001;28;19940;-61
2022/05/14 10:00:13;;;;;;;;;;;;;;;25.49;48.24;98315.28;5016512;28;19925;-61
2022/05/14 10:02:47;;;;;;;;;;;;;;;25.72;47.69;98318.22;5002359;28;19936;-61
2022/05/14 10:05:16;;;;;;;;;;;;;;;25.70;47.31;98310.38;5019794;28;19958;-60
2022/05/14 10:07:46;;;;;;;;;;;;;;;25.61;45.96;98309.75;5008508;28;19932;-61
2022/05/14 10:10:20;;;;;;;;;;;;;;;25.70;46.41;98307.63;5016848;28;19926;-62
2022/05/14 10:12:51;;;;;;;;;;;;;;;24.76;43.95;98314.72;5009092;28;19994;-61
2022/05/14 10:15:25;;;;;;;;;;;;;;;24.02;43.52;98296.84;5018533;28;19922;-62
2022/05/14 10:17:58;;;;;;;;;;;;;;;25.32;46.74;98307.38;5015775;28;19933;-61
2022/05/14 10:20:37;;;;;;;;;;;;;;;25.54;46.30;98306.81;5016909;28;19925;-61
2022/05/14 10:28:53;;;;;;;;;;;;;;;25.65;45.93;98294.25;5008505;28;19988;-60
2022/05/14 10:31:27;;;;;;;;;;;;;;;25.66;45.21;98292.28;5016354;28;19928;-61
2022/05/14 10:33:56;;;;;;;;;;;;;;;25.69;46.15;98292.38;5019420;28;19971;-60
2022/05/14 10:36:26;;;;;;;;;;;;;;;25.73;43.55;98286.97;5018740;28;20028;-61
2022/05/14 10:38:56;;;;;;;;;;;;;;;25.64;45.78;98289.91;5015713;28;19985;-61
2022/05/14 10:41:27;;;;;;;;;;;;;;;25.77;46.35;98283.22;4999678;28;19930;-61
2022/05/14 10:43:57;;;;;;;;;;;;;;;25.99;45.50;98283.72;5018333;28;19926;-61
2022/05/14 10:46:27;;;;;;;;;;;;;;;25.14;42.46;98284.22;5016747;28;19932;-61
2022/05/14 10:48:56;;;;;;;;;;;;;;;25.35;45.20;98286.72;5019385;28;20330;-61
2022/05/14 10:51:24;;;;;;;;;;;;;;;25.21;41.62;98281.69;5018364;28;19989;-61
2022/05/14 10:53:51;;;;;;;;;;;;;;;25.48;44.64;98274.59;5016203;28;20073;-61
2022/05/14 10:56:22;;;;;;;;;;;;;;;25.72;45.38;98275.25;5015986;28;19926;-60
2022/05/14 10:58:57;;;;;;;;;;;;;;;25.82;45.47;98273.91;5019321;28;19929;-61
2022/05/14 11:01:28;;;;;;;;;;;;;;;25.73;41.68;98260.44;5018479;28;19960;-61
2022/05/14 11:03:58;;;;;;;;;;;;;;;25.62;45.06;98262.13;5015793;28;19952;-61
2022/05/14 11:06:28;;;;;;;;;;;;;;;25.90;44.62;98253.00;5016824;28;19936;-61
2022/05/14 11:08:55;;;;;;;;;;;;;;;25.82;43.19;98262.97;5019038;28;19925;-61
2022/05/14 11:11:23;;;;;;;;;;;;;;;25.64;43.93;98262.53;5018467;28;20810;-61
2022/05/14 11:13:57;;;;;;;;;;;;;;;25.77;44.87;98272.25;5015689;28;20001;-62
2022/05/14 11:16:23;;;;;;;;;;;;;;;25.29;42.80;98269.00;5016598;28;19926;-62
2022/05/14 11:18:52;;;;;;;;;;;;;;;25.54;44.98;98265.81;5018982;28;20060;-61
2022/05/14 11:21:22;;;;;;;;;;;;;;;25.21;40.45;98257.88;5018642;28;19993;-61
2022/05/14 11:23:54;;;;;;;;;;;;;;;25.33;42.43;98246.09;5015656;28;20012;-61
2022/05/14 11:26:21;;;;;;;;;;;;;;;24.70;42.33;98245.91;5018660;28;19993;-60
2022/05/14 11:28:55;;;;;;;;;;;;;;;25.37;44.10;98238.78;5022382;28;19925;-60
2022/05/14 11:31:24;;;;;;;;;;;;;;;25.61;44.21;98235.09;5021761;28;19990;-60
2022/05/14 11:33:53;;;;;;;;;;;;;;;25.37;44.31;98238.78;5018902;28;19947;-61
2022/05/14 11:36:22;;;;;;;;;;;;;;;25.52;44.54;98242.69;5019457;28;19957;-61
2022/05/14 11:38:52;;;;;;;;;;;;;;;25.65;44.99;98246.94;5022250;28;20029;-62
2022/05/14 11:41:28;;;;;;;;;;;;;;;25.73;44.67;98238.53;5021845;28;19929;-60
2022/05/14 11:43:55;;;;;;;;;;;;;;;25.81;43.54;98233.25;5018774;28;19938;-61
2022/05/14 11:46:26;;;;;;;;;;;;;;;25.81;43.28;98238.72;5019159;28;19948;-61
2022/05/14 11:48:57;;;;;;;;;;;;;;;25.82;44.57;98218.41;5022134;28;19993;-61
2022/05/14 11:51:29;;;;;;;;;;;;;;;25.92;41.17;98228.81;5021121;28;19932;-62
2022/05/14 11:54:00;;;;;;;;;;;;;;;25.65;41.95;98225.84;5018726;28;19979;-60
2022/05/14 11:56:30;;;;;;;;;;;;;;;25.75;43.20;98227.22;5020023;28;19989;-60
2022/05/14 11:59:03;;;;;;;;;;;;;;;25.74;42.78;98222.94;5021807;28;19953;-60
2022/05/14 12:01:33;;;;;;;;;;;;;;;25.71;39.75;98221.69;5020349;28;19964;-61
2022/05/14 12:04:02;;;;;;;;;;;;;;;25.54;41.88;98223.97;5018659;28;19949;-60
2022/05/14 12:06:40;;;;;;;;;;;;;;;25.42;41.47;98219.38;5020096;28;19932;-62
2022/05/14 12:09:13;;;;;;;;;;;;;;;25.40;41.58;98212.66;5021769;28;19932;-61
2022/05/14 12:11:44;;;;;;;;;;;;;;;25.05;40.72;98218.78;5019058;28;19926;-60
2022/05/14 12:14:14;;;;;;;;;;;;;;;25.31;42.33;98209.31;5018471;28;19952;-60
2022/05/14 12:16:42;;;;;;;;;;;;;;;25.11;40.72;98206.47;5021694;28;19932;-61
2022/05/14 12:19:15;;;;;;;;;;;;;;;24.94;40.73;98208.72;5021589;28;19997;-61
2022/05/14 12:21:41;;;;;;;;;;;;;;;24.81;40.43;98208.00;5018195;28;19929;-61
2022/05/14 12:24:17;;;;;;;;;;;;;;;24.79;40.71;98210.22;5018201;28;20020;-61
2022/05/14 12:26:44;;;;;;;;;;;;;;;24.78;41.60;98203.19;5010304;28;19926;-61
2022/05/14 12:29:13;;;;;;;;;;;;;;;24.76;41.71;98199.25;5018262;28;20003;-61
2022/05/14 12:34:34;;;;;;;;;;;;;;;25.07;41.71;98199.31;5020442;28;19956;-61
2022/05/14 12:37:02;;;;;;;;;;;;;;;25.40;42.08;98188.84;5017391;28;19952;-61
2022/05/14 12:39:30;;;;;;;;;;;;;;;25.46;42.68;98190.19;5019619;28;19982;-60
2022/05/14 12:41:59;;;;;;;;;;;;;;;25.64;42.28;98185.16;5019892;28;19932;-61
2022/05/14 12:44:28;;;;;;;;;;;;;;;25.55;41.27;98182.63;5001690;28;19928;-62
2022/05/14 12:46:56;;;;;;;;;;;;;;;25.44;40.67;98178.78;5021378;28;19949;-61
2022/05/14 12:49:23;;;;;;;;;;;;;;;25.28;40.46;98174.47;5020721;28;19951;-61
2022/05/14 12:51:53;;;;;;;;;;;;;;;25.27;39.83;98181.88;5017924;28;19989;-62
2022/05/14 12:54:20;;;;;;;;;;;;;;;25.32;41.74;98178.88;5018215;28;19925;-61
2022/05/14 12:56:46;;;;;;;;;;;;;;;25.59;42.13;98177.22;5021186;28;19933;-61
2022/05/14 12:59:13;;;;;;;;;;;;;;;25.61;43.50;98170.25;5020830;28;20012;-61
2022/05/14 13:01:42;;;;;;;;;;;;;;;25.63;42.29;98173.41;5018039;28;19926;-61
2022/05/14 13:04:10;;;;;;;;;;;;;;;25.71;39.30;98174.38;5017839;28;19993;-63
2022/05/14 13:06:41;;;;;;;;;;;;;;;25.54;38.99;98167.34;5020632;28;19930;-60
2022/05/14 13:09:10;;;;;;;;;;;;;;;25.45;41.03;98163.16;5003659;28;19928;-61
2022/05/14 13:11:44;;;;;;;;;;;;;;;25.66;41.28;98163.69;5018359;28;19930;-61
2022/05/14 13:14:13;;;;;;;;;;;;;;;25.55;39.02;98166.22;5017344;28;20493;-60
2022/05/14 13:16:39;;;;;;;;;;;;;;;25.59;42.18;98156.13;5020273;28;19922;-60